Time;durP1;ratioP1;P1;durP2;ratioP2;P2;SDS_P1;SDS_P2;PMS_P1;PMS_P2;Temp;Humidity;BMP_temperature;BMP_pressure;BME280_temperature;BME280_humidity;BME280_pressure;Samples;Min_cycle;Max_cycle;Signal;HPM_P1;HPM_P2
2023/04/13 00:00:44;;;;;;;32.97;21.17;;;6.90;57.40;;;;;;5045954;27;114414;-82
2023/04/13 00:03:12;;;;;;;36.63;25.10;;;6.90;57.30;;;;;;5028751;27;114322;-82
2023/04/13 00:05:39;;;;;;;32.55;23.60;;;6.80;57.20;;;;;;5027863;27;115096;-82
2023/04/13 00:08:07;;;;;;;30.52;21.05;;;6.90;57.30;;;;;;5045876;27;114834;-83
2023/04/13 00:10:34;;;;;;;29.38;19.90;;;6.90;57.10;;;;;;5047017;27;114396;-84
2023/04/13 00:13:03;;;;;;;27.33;17.73;;;6.90;57.10;;;;;;5045804;27;114319;-83
2023/04/13 00:15:33;;;;;;;22.38;13.98;;;6.80;56.40;;;;;;5028064;27;114911;-82
2023/04/13 00:18:00;;;;;;;24.25;14.52;;;6.80;56.10;;;;;;5049315;27;116254;-83
2023/04/13 00:20:28;;;;;;;18.27;12.02;;;6.80;56.00;;;;;;5065776;27;114785;-83
2023/04/13 00:22:55;;;;;;;20.17;12.50;;;6.90;55.90;;;;;;5065493;27;114207;-82
2023/04/13 00:25:23;;;;;;;20.02;11.75;;;6.90;55.90;;;;;;5064500;27;119400;-82
2023/04/13 00:27:51;;;;;;;15.48;10.90;;;7.00;55.40;;;;;;5066318;27;115033;-82
2023/04/13 00:30:20;;;;;;;13.63;9.30;;;7.10;55.50;;;;;;5067849;27;114384;-83
2023/04/13 00:32:47;;;;;;;14.55;9.50;;;7.20;55.00;;;;;;5068795;27;114304;-83
2023/04/13 00:35:17;;;;;;;13.18;8.68;;;7.20;54.50;;;;;;5051384;27;118020;-82
2023/04/13 00:37:46;;;;;;;13.05;8.73;;;7.30;54.20;;;;;;5051668;27;114584;-82
2023/04/13 00:40:15;;;;;;;13.32;8.50;;;7.30;53.90;;;;;;5066702;27;114599;-83
2023/04/13 00:42:46;;;;;;;10.65;7.65;;;7.40;53.70;;;;;;5065723;27;114316;-82
2023/04/13 00:45:14;;;;;;;11.98;7.90;;;7.50;53.50;;;;;;5064742;27;114988;-83
2023/04/13 00:47:42;;;;;;;10.93;7.45;;;7.50;53.20;;;;;;5051092;27;114699;-82
2023/04/13 00:50:09;;;;;;;11.02;7.15;;;7.60;53.00;;;;;;5035825;27;114430;-81
2023/04/13 00:52:39;;;;;;;10.40;6.80;;;7.60;52.80;;;;;;5035847;27;114416;-82
2023/04/13 00:55:06;;;;;;;10.15;6.15;;;7.70;52.50;;;;;;5068816;27;115034;-81
2023/04/13 00:57:34;;;;;;;9.68;6.97;;;7.70;52.30;;;;;;5078327;27;114070;-81
2023/04/13 01:00:05;;;;;;;10.80;6.63;;;7.70;52.30;;;;;;5053608;27;114738;-81
2023/04/13 01:02:33;;;;;;;8.75;6.25;;;7.80;51.70;;;;;;5069247;27;114901;-81
2023/04/13 01:05:04;;;;;;;10.77;6.20;;;7.70;51.90;;;;;;5067718;27;114908;-81
2023/04/13 01:07:44;;;;;;;10.63;6.35;;;7.80;51.90;;;;;;5067724;27;114543;-82
2023/04/13 01:10:27;;;;;;;9.18;6.00;;;7.90;51.20;;;;;;5045584;27;117277;-83
2023/04/13 01:13:08;;;;;;;9.18;6.13;;;8.00;51.20;;;;;;5048986;27;114426;-84
2023/04/13 01:15:42;;;;;;;7.07;5.40;;;8.00;50.90;;;;;;5069564;27;116872;-83
2023/04/13 01:18:09;;;;;;;9.07;5.95;;;8.00;50.90;;;;;;5034299;27;114665;-81
2023/04/13 01:20:37;;;;;;;10.18;5.75;;;8.00;50.60;;;;;;5035295;27;114232;-82
2023/04/13 01:23:09;;;;;;;9.13;4.78;;;8.10;50.60;;;;;;5035645;27;114408;-82
2023/04/13 01:25:40;;;;;;;9.98;5.20;;;8.10;50.50;;;;;;5051559;27;115162;-82
2023/04/13 01:28:28;;;;;;;7.25;4.90;;;8.20;50.10;;;;;;5050958;27;115154;-82
2023/04/13 01:30:56;;;;;;;8.73;5.00;;;8.20;50.00;;;;;;5051073;27;114256;-83
2023/04/13 01:33:24;;;;;;;8.82;5.00;;;8.20;50.10;;;;;;5051694;27;114284;-83
2023/04/13 01:35:51;;;;;;;8.20;5.10;;;8.20;49.80;;;;;;5034120;27;116137;-83
2023/04/13 01:38:23;;;;;;;7.93;5.10;;;8.20;49.70;;;;;;5067649;27;114621;-83
2023/04/13 01:40:52;;;;;;;9.75;5.03;;;8.30;49.50;;;;;;5069096;27;114280;-82
2023/04/13 01:43:21;;;;;;;8.55;5.47;;;8.20;49.60;;;;;;5069104;27;114658;-83
2023/04/13 01:46:08;;;;;;;10.80;5.40;;;8.30;49.40;;;;;;5053871;27;115018;-82
2023/04/13 01:48:52;;;;;;;9.38;5.53;;;8.30;49.30;;;;;;5047208;27;114717;-81
2023/04/13 01:51:40;;;;;;;10.15;5.18;;;8.30;49.50;;;;;;5034236;27;114015;-82
2023/04/13 01:54:23;;;;;;;7.43;4.43;;;8.30;49.30;;;;;;5015478;27;114291;-83
2023/04/13 01:56:50;;;;;;;8.27;4.85;;;8.40;48.90;;;;;;5044641;27;115412;-83
2023/04/13 01:59:21;;;;;;;8.88;5.10;;;8.30;48.60;;;;;;5012338;27;114684;-84
2023/04/13 02:01:49;;;;;;;7.63;4.55;;;8.30;48.50;;;;;;5030975;27;116589;-84
2023/04/13 02:04:16;;;;;;;9.63;4.97;;;8.40;48.70;;;;;;5030154;27;114311;-82
2023/04/13 02:06:45;;;;;;;7.78;5.05;;;8.40;48.60;;;;;;5045695;27;114956;-84
2023/04/13 02:09:12;;;;;;;9.05;4.68;;;8.40;48.60;;;;;;5004702;27;118080;-85
2023/04/13 02:11:39;;;;;;;8.07;4.45;;;8.30;48.40;;;;;;5052490;27;114534;-85
2023/04/13 02:14:08;;;;;;;9.60;5.15;;;8.40;48.20;;;;;;5069453;27;114342;-84
2023/04/13 02:16:35;;;;;;;9.38;5.65;;;8.40;48.20;;;;;;5067444;27;114926;-85
2023/04/13 02:19:02;;;;;;;8.75;4.65;;;8.30;48.60;;;;;;5031719;27;118089;-85
2023/04/13 02:21:29;;;;;;;7.60;4.90;;;8.40;48.20;;;;;;5011116;27;117938;-85
2023/04/13 02:23:56;;;;;;;10.32;5.07;;;8.30;48.20;;;;;;5013526;27;114692;-85
2023/04/13 02:26:26;;;;;;;7.63;4.93;;;8.30;48.30;;;;;;5012571;27;117450;-84
2023/04/13 02:28:53;;;;;;;8.63;4.68;;;8.30;48.70;;;;;;5014675;27;114602;-84
2023/04/13 02:31:43;;;;;;;7.15;4.32;;;8.30;48.50;;;;;;5051295;27;114449;-84
2023/04/13 02:34:10;;;;;;;8.13;4.70;;;8.40;48.20;;;;;;5033798;27;114306;-86
2023/04/13 02:36:39;;;;;;;8.13;4.65;;;8.20;48.40;;;;;;5049886;27;117957;-83
2023/04/13 02:39:08;;;;;;;7.38;4.38;;;8.20;48.40;;;;;;4996810;27;118775;-84
2023/04/13 02:41:35;;;;;;;7.88;4.47;;;8.20;48.40;;;;;;5030735;27;114535;-84
2023/04/13 02:44:05;;;;;;;8.00;4.28;;;8.20;48.40;;;;;;5016613;27;114577;-85
2023/04/13 02:46:42;;;;;;;9.20;4.57;;;8.20;48.30;;;;;;4997262;27;117983;-84
2023/04/13 02:49:14;;;;;;;8.13;5.13;;;8.20;48.30;;;;;;5012784;27;117648;-84
2023/04/13 02:51:59;;;;;;;7.60;4.80;;;8.20;48.40;;;;;;5032956;27;114371;-85
2023/04/13 02:54:42;;;;;;;8.18;4.47;;;8.10;48.50;;;;;;5017681;27;114350;-84
2023/04/13 02:57:12;;;;;;;10.15;4.70;;;8.10;48.30;;;;;;5062924;27;115522;-83
2023/04/13 02:59:40;;;;;;;8.00;4.78;;;8.10;48.40;;;;;;5030884;27;114630;-83
2023/04/13 03:02:08;;;;;;;7.90;5.10;;;8.10;48.30;;;;;;5034511;27;114653;-84
2023/04/13 03:04:36;;;;;;;7.90;4.90;;;8.10;48.00;;;;;;5054736;27;114526;-83
2023/04/13 03:07:08;;;;;;;7.82;4.78;;;8.10;48.20;;;;;;5016906;27;118530;-83
2023/04/13 03:09:40;;;;;;;7.68;4.65;;;8.00;48.20;;;;;;5032405;27;118171;-82
2023/04/13 03:12:08;;;;;;;8.27;4.43;;;8.10;47.90;;;;;;5033721;27;114296;-83
2023/04/13 03:14:36;;;;;;;7.30;4.55;;;8.10;48.00;;;;;;5067043;27;114682;-84
2023/04/13 03:17:06;;;;;;;7.18;4.50;;;8.10;47.80;;;;;;5033217;27;118142;-84
2023/04/13 03:19:37;;;;;;;9.45;4.50;;;8.00;47.50;;;;;;5048557;27;118287;-84
2023/04/13 03:22:07;;;;;;;8.52;4.40;;;8.00;47.50;;;;;;5016911;27;114600;-83
2023/04/13 03:24:39;;;;;;;6.80;4.00;;;8.00;47.60;;;;;;5067155;27;114381;-82
2023/04/13 03:27:08;;;;;;;6.63;4.00;;;7.90;47.40;;;;;;5049371;27;116669;-83
2023/04/13 03:29:42;;;;;;;6.20;4.05;;;7.90;47.40;;;;;;5012984;27;114702;-82
2023/04/13 03:32:14;;;;;;;7.35;4.10;;;7.90;47.40;;;;;;5046411;27;114554;-82
2023/04/13 03:34:45;;;;;;;7.40;4.07;;;7.90;47.30;;;;;;5046354;27;114416;-82
2023/04/13 03:37:13;;;;;;;6.10;3.95;;;7.90;47.30;;;;;;5027973;27;115053;-81
2023/04/13 03:39:41;;;;;;;8.73;4.72;;;8.00;47.30;;;;;;5045558;27;114640;-81
2023/04/13 03:42:12;;;;;;;8.23;4.78;;;7.90;47.50;;;;;;5046960;27;114190;-81
2023/04/13 03:44:45;;;;;;;7.93;5.05;;;8.00;47.40;;;;;;5046967;27;114439;-81
2023/04/13 03:47:12;;;;;;;9.02;5.13;;;8.00;47.70;;;;;;5044768;27;115425;-80
2023/04/13 03:49:39;;;;;;;9.20;5.00;;;8.00;47.50;;;;;;5046496;27;114688;-81
2023/04/13 03:52:07;;;;;;;8.63;5.55;;;8.00;47.40;;;;;;5045820;27;114414;-81
2023/04/13 03:54:39;;;;;;;9.75;5.30;;;8.00;47.50;;;;;;5045635;27;114617;-80
2023/04/13 03:57:06;;;;;;;8.02;5.00;;;8.00;47.40;;;;;;5027918;27;115140;-81
2023/04/13 03:59:34;;;;;;;9.10;4.93;;;8.00;47.30;;;;;;5044525;27;114692;-82
2023/04/13 04:02:03;;;;;;;9.30;4.70;;;8.00;47.40;;;;;;5045253;27;114480;-81
2023/04/13 04:04:33;;;;;;;8.13;4.57;;;8.00;47.40;;;;;;5045855;27;114410;-85
2023/04/13 04:07:01;;;;;;;6.85;4.13;;;8.00;47.40;;;;;;5039342;27;114907;-84
2023/04/13 04:09:29;;;;;;;7.15;4.38;;;8.00;47.20;;;;;;5027134;27;116089;-81
2023/04/13 04:12:00;;;;;;;6.53;4.13;;;8.00;47.20;;;;;;5045640;27;114519;-82
2023/04/13 04:14:38;;;;;;;9.02;4.38;;;8.00;47.00;;;;;;5045606;27;114647;-82
2023/04/13 04:17:16;;;;;;;9.02;4.82;;;8.00;47.00;;;;;;5027407;27;117104;-82
2023/04/13 04:19:43;;;;;;;8.32;4.28;;;8.00;47.20;;;;;;5044909;27;114618;-82
2023/04/13 04:22:12;;;;;;;5.90;3.85;;;8.00;47.00;;;;;;5032107;27;114518;-82
2023/04/13 04:24:41;;;;;;;6.80;4.57;;;8.10;47.10;;;;;;5048686;27;114307;-84
2023/04/13 04:27:08;;;;;;;9.20;4.47;;;8.10;47.20;;;;;;5048329;27;114862;-84
2023/04/13 04:29:35;;;;;;;6.47;4.75;;;8.10;47.10;;;;;;5038397;27;114998;-84
2023/04/13 04:32:14;;;;;;;8.93;4.30;;;8.20;47.00;;;;;;5041876;27;114089;-84
2023/04/13 04:34:42;;;;;;;7.88;4.40;;;8.10;47.10;;;;;;5047363;27;114499;-83
2023/04/13 04:37:13;;;;;;;6.15;3.58;;;8.20;46.80;;;;;;5051366;27;118592;-84
2023/04/13 04:39:58;;;;;;;7.28;4.32;;;8.20;46.50;;;;;;5053729;27;114597;-83
2023/04/13 04:42:26;;;;;;;7.28;4.03;;;8.10;46.80;;;;;;5086036;27;114524;-83
2023/04/13 04:44:56;;;;;;;8.27;3.90;;;8.20;47.00;;;;;;5052866;27;117259;-83
2023/04/13 04:47:29;;;;;;;6.55;4.00;;;8.20;46.60;;;;;;5067054;27;114908;-83
2023/04/13 04:50:10;;;;;;;7.47;3.95;;;8.20;47.00;;;;;;5038947;27;115433;-82
2023/04/13 04:52:40;;;;;;;7.50;3.90;;;8.20;46.70;;;;;;5049411;27;114409;-83
2023/04/13 04:55:08;;;;;;;7.97;4.15;;;8.20;46.80;;;;;;5032063;27;114557;-81
2023/04/13 04:57:39;;;;;;;6.88;4.05;;;8.20;46.60;;;;;;5030645;27;116589;-82
2023/04/13 05:00:09;;;;;;;6.90;3.70;;;8.30;46.60;;;;;;5047786;27;115764;-83
2023/04/13 05:02:38;;;;;;;7.90;4.18;;;8.30;46.80;;;;;;5031010;27;114335;-82
2023/04/13 05:05:09;;;;;;;7.80;3.60;;;8.40;46.40;;;;;;5032479;27;114494;-82
2023/04/13 05:07:37;;;;;;;6.35;3.58;;;8.30;46.00;;;;;;5047804;27;114893;-82
2023/04/13 05:10:06;;;;;;;7.93;3.83;;;8.30;46.20;;;;;;5014972;27;114569;-82
2023/04/13 05:12:36;;;;;;;8.55;3.95;;;8.30;46.40;;;;;;5048996;27;114239;-82
2023/04/13 05:15:05;;;;;;;7.55;4.10;;;8.30;46.40;;;;;;5049278;27;114447;-82
2023/04/13 05:17:35;;;;;;;6.18;3.92;;;8.30;46.10;;;;;;5047214;27;114704;-82
2023/04/13 05:20:05;;;;;;;8.30;3.83;;;8.30;46.20;;;;;;5030011;27;117436;-82
2023/04/13 05:23:06;;;;;;;7.85;3.97;;;8.40;46.30;;;;;;5038960;27;114437;-82
2023/04/13 05:25:38;;;;;;;7.38;4.15;;;8.40;46.50;;;;;;5038006;27;114579;-83
2023/04/13 05:28:13;;;;;;;8.73;3.80;;;8.50;46.30;;;;;;5029148;27;115890;-84
2023/04/13 05:30:41;;;;;;;8.38;4.45;;;8.40;46.40;;;;;;5069981;27;114578;-83
2023/04/13 05:33:10;;;;;;;7.75;4.28;;;8.50;46.40;;;;;;5044334;27;114593;-83
2023/04/13 05:35:39;;;;;;;8.07;4.40;;;8.60;46.60;;;;;;5028110;27;114388;-84
2023/04/13 05:38:08;;;;;;;9.43;4.53;;;8.70;46.50;;;;;;5028044;27;115186;-82
2023/04/13 05:40:35;;;;;;;7.45;4.30;;;8.70;46.40;;;;;;5044369;27;116169;-83
2023/04/13 05:43:06;;;;;;;8.32;4.82;;;8.80;46.30;;;;;;5050830;27;114393;-83
2023/04/13 05:45:39;;;;;;;9.13;4.20;;;8.90;46.00;;;;;;5028268;27;114655;-82
2023/04/13 05:48:10;;;;;;;7.55;3.70;;;8.90;45.80;;;;;;5040132;27;115496;-82
2023/04/13 05:50:38;;;;;;;7.65;4.30;;;9.00;45.60;;;;;;5047156;27;115066;-82
2023/04/13 05:53:07;;;;;;;6.65;3.80;;;9.00;45.80;;;;;;5045161;27;114540;-83
2023/04/13 05:55:51;;;;;;;7.27;3.97;;;9.10;45.80;;;;;;5063117;27;116600;-82
2023/04/13 05:58:19;;;;;;;6.43;3.85;;;9.20;45.40;;;;;;5044467;27;115502;-83
2023/04/13 06:00:50;;;;;;;9.55;4.28;;;9.20;45.40;;;;;;5042073;27;114712;-82
2023/04/13 06:03:28;;;;;;;9.57;4.60;;;9.30;45.40;;;;;;5028131;27;114347;-83
2023/04/13 06:05:56;;;;;;;8.52;4.75;;;9.30;45.40;;;;;;5030434;27;117175;-84
2023/04/13 06:08:31;;;;;;;8.88;3.95;;;9.40;45.40;;;;;;5045582;27;115083;-83
2023/04/13 06:10:59;;;;;;;7.53;4.20;;;9.40;45.30;;;;;;5045213;27;114612;-83
2023/04/13 06:13:26;;;;;;;8.70;4.10;;;9.50;45.20;;;;;;5029031;27;114584;-83
2023/04/13 06:15:54;;;;;;;7.60;3.92;;;9.60;45.00;;;;;;5029811;27;114603;-84
2023/04/13 06:18:21;;;;;;;7.97;3.92;;;9.60;45.90;;;;;;5044334;27;115201;-84
2023/04/13 06:20:48;;;;;;;9.23;4.40;;;9.70;45.20;;;;;;5043667;27;114780;-84
2023/04/13 06:23:15;;;;;;;8.98;4.20;;;9.70;45.10;;;;;;5047033;27;114523;-84
2023/04/13 06:25:44;;;;;;;6.95;4.13;;;9.80;45.60;;;;;;5046959;27;114626;-83
2023/04/13 06:28:14;;;;;;;7.18;4.07;;;10.00;45.80;;;;;;5029491;27;114334;-84
2023/04/13 06:30:43;;;;;;;9.13;4.68;;;10.10;45.30;;;;;;5012273;27;116443;-83
2023/04/13 06:33:16;;;;;;;8.23;4.35;;;10.20;45.50;;;;;;5048204;27;114576;-84
2023/04/13 06:35:47;;;;;;;7.32;4.18;;;10.20;44.90;;;;;;5012404;27;114329;-85
2023/04/13 06:38:16;;;;;;;9.80;4.10;;;10.30;45.00;;;;;;5041402;27;117436;-83
2023/04/13 06:41:01;;;;;;;8.43;3.63;;;10.30;44.50;;;;;;5041768;27;114367;-85
2023/04/13 06:43:33;;;;;;;10.85;5.68;;;10.30;44.20;;;;;;5028894;27;114625;-84
2023/04/13 06:46:19;;;;;;;6.55;3.85;;;10.50;44.90;;;;;;5044305;27;114827;-85
2023/04/13 06:48:49;;;;;;;10.70;4.20;;;10.50;44.10;;;;;;5028102;27;115711;-84
2023/04/13 06:51:20;;;;;;;9.82;4.47;;;10.60;44.20;;;;;;5028435;27;118207;-85
2023/04/13 06:53:48;;;;;;;9.38;5.43;;;10.70;44.40;;;;;;5046115;27;114183;-84
2023/04/13 06:56:19;;;;;;;11.52;5.80;;;10.70;44.10;;;;;;5046697;27;114284;-83
2023/04/13 06:58:46;;;;;;;11.10;5.10;;;10.80;44.70;;;;;;5028127;27;116459;-85
2023/04/13 07:01:14;;;;;;;11.68;5.65;;;11.00;44.90;;;;;;5046787;27;116875;-84
2023/04/13 07:03:43;;;;;;;12.90;8.30;;;11.20;45.10;;;;;;5043188;27;114463;-85
2023/04/13 07:06:16;;;;;;;12.43;6.25;;;11.30;44.80;;;;;;5029051;27;114377;-84
2023/04/13 07:08:46;;;;;;;11.48;6.55;;;11.50;43.90;;;;;;5044607;27;114935;-84
2023/04/13 07:11:14;;;;;;;10.68;6.18;;;11.70;43.60;;;;;;5027346;27;116647;-84
2023/04/13 07:13:41;;;;;;;11.25;6.07;;;11.70;43.50;;;;;;5067263;27;114327;-84
2023/04/13 07:16:13;;;;;;;13.45;6.80;;;11.80;42.90;;;;;;5049909;27;114471;-85
2023/04/13 07:18:44;;;;;;;11.60;5.83;;;11.80;43.00;;;;;;5028027;27;115236;-84
2023/04/13 07:21:11;;;;;;;12.88;5.45;;;12.00;43.30;;;;;;5045721;27;114888;-84
2023/04/13 07:23:54;;;;;;;9.65;5.00;;;12.10;43.00;;;;;;5027448;27;114365;-85
2023/04/13 07:26:26;;;;;;;9.00;4.55;;;12.20;42.30;;;;;;5063772;27;117530;-86
2023/04/13 07:28:54;;;;;;;10.77;5.45;;;12.40;41.90;;;;;;5013428;27;116042;-84
2023/04/13 07:31:28;;;;;;;11.23;5.40;;;12.50;41.90;;;;;;5024728;27;118105;-84
2023/04/13 07:33:56;;;;;;;12.80;5.85;;;12.60;41.90;;;;;;5044635;27;114454;-85
2023/04/13 07:36:31;;;;;;;10.82;4.95;;;12.70;41.50;;;;;;5027980;27;114381;-85
2023/04/13 07:39:07;;;;;;;13.20;5.80;;;12.70;41.60;;;;;;5001648;27;116577;-86
2023/04/13 07:41:37;;;;;;;13.30;5.53;;;12.80;41.30;;;;;;5014312;27;117256;-85
2023/04/13 07:44:07;;;;;;;9.88;5.30;;;12.80;41.10;;;;;;5025042;27;114258;-84
2023/04/13 07:46:35;;;;;;;14.80;5.35;;;12.90;41.20;;;;;;4994372;27;114533;-84
2023/04/13 07:49:02;;;;;;;10.27;4.70;;;13.00;41.00;;;;;;4993485;27;114936;-84
2023/04/13 07:51:33;;;;;;;10.65;5.10;;;13.00;40.60;;;;;;5011002;27;117976;-85
2023/04/13 07:54:03;;;;;;;9.43;4.15;;;13.10;40.70;;;;;;5028355;27;114537;-84
2023/04/13 07:56:35;;;;;;;8.32;4.93;;;13.20;40.30;;;;;;5009554;27;114391;-85
2023/04/13 07:59:08;;;;;;;9.90;5.00;;;13.20;40.30;;;;;;5010104;27;117623;-85
2023/04/13 08:01:44;;;;;;;9.65;4.53;;;13.30;40.50;;;;;;5044954;27;114379;-84
2023/04/13 08:04:12;;;;;;;8.95;4.43;;;13.30;40.30;;;;;;5033671;27;114454;-84
2023/04/13 08:06:41;;;;;;;7.32;4.30;;;13.50;40.10;;;;;;5047934;27;114428;-84
2023/04/13 08:09:11;;;;;;;10.77;5.38;;;13.70;39.50;;;;;;5044669;27;114964;-85
2023/04/13 08:11:38;;;;;;;8.02;4.50;;;13.90;39.70;;;;;;5067059;27;114996;-84
2023/04/13 08:14:08;;;;;;;7.80;4.18;;;14.00;38.70;;;;;;5049201;27;114335;-85
2023/04/13 08:16:38;;;;;;;8.90;4.90;;;14.00;38.60;;;;;;5028038;27;114327;-84
2023/04/13 08:19:10;;;;;;;10.27;4.93;;;14.00;38.70;;;;;;5040338;27;115100;-85
2023/04/13 08:21:42;;;;;;;9.40;5.20;;;13.90;39.00;;;;;;5010878;27;115110;-85
2023/04/13 08:24:09;;;;;;;10.45;5.53;;;14.00;39.50;;;;;;5008999;27;114386;-85
2023/04/13 08:26:41;;;;;;;8.77;4.80;;;14.20;39.90;;;;;;5017040;27;114534;-85
2023/04/13 08:29:13;;;;;;;10.10;5.85;;;14.20;39.80;;;;;;5025277;27;115184;-85
2023/04/13 08:31:46;;;;;;;11.02;5.88;;;14.40;38.40;;;;;;5001480;27;114654;-85
2023/04/13 08:34:17;;;;;;;11.18;5.78;;;14.40;38.40;;;;;;5020980;27;114276;-85
2023/04/13 08:36:46;;;;;;;10.13;5.47;;;14.50;38.50;;;;;;5041389;27;117396;-85
2023/04/13 08:39:14;;;;;;;10.23;5.50;;;14.70;38.70;;;;;;5001323;27;117938;-85
2023/04/13 08:41:46;;;;;;;10.32;5.22;;;14.80;38.70;;;;;;4993427;27;118165;-86
2023/04/13 08:44:19;;;;;;;8.80;4.93;;;14.90;38.30;;;;;;4998159;27;116987;-84
2023/04/13 08:46:51;;;;;;;9.77;4.60;;;14.90;38.80;;;;;;4991462;27;114711;-86
2023/04/13 08:49:31;;;;;;;7.93;3.92;;;15.00;38.50;;;;;;5021990;27;117308;-84
2023/04/13 08:52:07;;;;;;;5.78;3.72;;;15.00;38.90;;;;;;4998808;27;118116;-84
2023/04/13 08:54:36;;;;;;;6.53;3.60;;;15.10;38.80;;;;;;4984593;27;115639;-84
2023/04/13 08:57:08;;;;;;;7.50;3.40;;;15.20;38.40;;;;;;4992637;27;114352;-84
2023/04/13 08:59:36;;;;;;;5.95;3.58;;;15.20;38.40;;;;;;4996709;27;118501;-85
2023/04/13 09:02:06;;;;;;;10.63;4.10;;;15.30;38.30;;;;;;4998150;27;118052;-86
2023/04/13 09:04:49;;;;;;;6.28;3.25;;;15.30;38.70;;;;;;5014526;27;114666;-84
2023/04/13 09:07:25;;;;;;;5.63;3.30;;;15.50;38.40;;;;;;4980433;27;114535;-84
2023/04/13 09:10:01;;;;;;;6.25;3.75;;;15.50;37.70;;;;;;5020224;27;114878;-84
2023/04/13 09:12:32;;;;;;;5.90;3.60;;;15.50;37.50;;;;;;5035052;27;117195;-85
2023/04/13 09:15:06;;;;;;;6.67;3.90;;;15.50;37.90;;;;;;4999141;27;114757;-85
2023/04/13 09:17:44;;;;;;;6.65;4.40;;;15.50;38.50;;;;;;5016595;27;114454;-85
2023/04/13 09:20:22;;;;;;;6.22;4.20;;;15.50;38.50;;;;;;5014141;27;115151;-85
2023/04/13 09:22:52;;;;;;;8.10;4.45;;;15.60;38.30;;;;;;5015014;27;114667;-86
2023/04/13 09:25:21;;;;;;;7.40;3.63;;;15.50;38.70;;;;;;4997243;27;114404;-86
2023/04/13 09:27:50;;;;;;;6.70;4.38;;;15.50;38.60;;;;;;5047216;27;114648;-85
2023/04/13 09:30:21;;;;;;;8.30;4.88;;;15.60;38.90;;;;;;5029646;27;117734;-85
2023/04/13 09:33:09;;;;;;;9.43;4.70;;;15.60;38.80;;;;;;5011620;27;118448;-84
2023/04/13 09:35:36;;;;;;;6.40;4.30;;;15.60;39.20;;;;;;5032553;27;114376;-85
2023/04/13 09:38:07;;;;;;;7.07;4.65;;;15.60;39.00;;;;;;4997572;27;114383;-84
2023/04/13 09:40:40;;;;;;;9.32;4.82;;;15.60;38.80;;;;;;5045760;27;115325;-86
2023/04/13 09:43:09;;;;;;;9.57;5.30;;;15.60;38.60;;;;;;5013125;27;115376;-85
2023/04/13 09:45:37;;;;;;;8.20;4.82;;;15.60;38.80;;;;;;5029589;27;114418;-85
2023/04/13 09:48:15;;;;;;;7.93;4.68;;;15.50;38.80;;;;;;4995456;27;114665;-86
2023/04/13 09:50:43;;;;;;;10.07;4.40;;;15.50;38.70;;;;;;4989652;27;118424;-85
2023/04/13 09:53:10;;;;;;;8.95;3.72;;;15.40;39.10;;;;;;5011095;27;118416;-85
2023/04/13 09:55:37;;;;;;;9.10;4.40;;;15.30;39.20;;;;;;5030288;27;114503;-85
2023/04/13 09:58:18;;;;;;;8.30;3.95;;;15.30;39.50;;;;;;4998500;27;117077;-85
2023/04/13 10:00:45;;;;;;;6.65;4.25;;;15.30;39.20;;;;;;5010837;27;118781;-85
2023/04/13 10:03:14;;;;;;;6.80;4.20;;;15.30;39.40;;;;;;5045916;27;114710;-85
2023/04/13 10:05:45;;;;;;;7.25;3.90;;;15.30;39.80;;;;;;4998930;27;114432;-84
2023/04/13 10:08:25;;;;;;;7.10;4.03;;;15.30;39.60;;;;;;5031431;27;114384;-84
2023/04/13 10:11:09;;;;;;;10.60;4.07;;;15.40;39.60;;;;;;5016063;27;114906;-84
2023/04/13 10:13:41;;;;;;;7.40;3.95;;;15.50;39.30;;;;;;5027714;27;115004;-84
2023/04/13 10:16:27;;;;;;;7.80;3.83;;;15.50;39.20;;;;;;5013785;27;114167;-84
2023/04/13 10:19:15;;;;;;;6.90;3.67;;;15.60;39.30;;;;;;5038133;27;114354;-85
2023/04/13 10:21:44;;;;;;;10.02;4.53;;;15.70;39.00;;;;;;5026419;27;115111;-85
2023/04/13 10:24:11;;;;;;;7.47;4.07;;;15.70;38.90;;;;;;5025483;27;114764;-85
2023/04/13 10:26:40;;;;;;;7.63;3.65;;;15.80;39.10;;;;;;5015149;27;114486;-85
2023/04/13 10:29:12;;;;;;;9.13;4.38;;;15.90;38.70;;;;;;4999947;27;114612;-86
2023/04/13 10:31:50;;;;;;;7.88;4.63;;;16.10;38.90;;;;;;5017361;27;115504;-85
2023/04/13 10:34:25;;;;;;;7.72;4.07;;;16.10;38.20;;;;;;5013133;27;115055;-84
2023/04/13 10:37:01;;;;;;;7.55;4.40;;;16.20;38.60;;;;;;5040508;27;114343;-84
2023/04/13 10:39:33;;;;;;;7.32;4.00;;;16.20;38.40;;;;;;5048807;27;114259;-84
2023/04/13 10:42:08;;;;;;;8.38;4.72;;;16.20;38.50;;;;;;5002360;27;118238;-84
2023/04/13 10:44:46;;;;;;;6.20;4.15;;;16.20;38.40;;;;;;5011772;27;116648;-86
2023/04/13 10:47:15;;;;;;;8.70;5.05;;;16.20;38.60;;;;;;5039245;27;114321;-85
2023/04/13 10:49:43;;;;;;;8.07;4.82;;;16.20;38.90;;;;;;5029153;27;114365;-86
2023/04/13 10:52:12;;;;;;;8.05;4.63;;;16.20;38.90;;;;;;5045798;27;115035;-86
2023/04/13 10:54:40;;;;;;;10.27;4.63;;;16.10;39.10;;;;;;5029093;27;117525;-86
2023/04/13 10:57:08;;;;;;;7.90;5.15;;;16.10;39.30;;;;;;5022379;27;114624;-86
2023/04/13 10:59:43;;;;;;;10.73;5.30;;;16.10;39.30;;;;;;5023018;27;114396;-86
2023/04/13 11:02:35;;;;;;;10.07;6.20;;;16.10;39.40;;;;;;5044109;27;115054;-86
2023/04/13 11:05:06;;;;;;;10.95;6.28;;;16.10;39.50;;;;;;5003075;27;118099;-86
2023/04/13 11:07:37;;;;;;;8.27;5.32;;;16.10;39.60;;;;;;5039096;27;114689;-85
2023/04/13 11:10:06;;;;;;;9.95;5.22;;;16.20;39.30;;;;;;5017716;27;114671;-86
2023/04/13 11:12:33;;;;;;;9.00;4.55;;;16.20;39.10;;;;;;5019234;27;120034;-86
2023/04/13 11:15:01;;;;;;;9.18;5.15;;;16.20;39.20;;;;;;5003699;27;117492;-86
2023/04/13 11:17:29;;;;;;;9.60;5.90;;;16.10;39.40;;;;;;5036468;27;114716;-85
2023/04/13 11:19:57;;;;;;;8.95;6.05;;;16.00;39.30;;;;;;5036117;27;114519;-85
2023/04/13 11:22:27;;;;;;;8.93;6.18;;;15.90;39.60;;;;;;5019561;27;118556;-85
2023/04/13 11:25:05;;;;;;;9.90;5.95;;;15.80;39.60;;;;;;5002178;27;118236;-86
2023/04/13 11:27:32;;;;;;;12.25;6.60;;;15.70;40.00;;;;;;5002569;27;117728;-85
2023/04/13 11:30:04;;;;;;;9.70;5.55;;;15.50;40.50;;;;;;5023949;27;116641;-86
2023/04/13 11:32:32;;;;;;;10.23;6.15;;;15.40;40.40;;;;;;5041448;27;114830;-86
2023/04/13 11:35:07;;;;;;;11.75;5.43;;;15.30;40.50;;;;;;5005098;27;118230;-87
2023/04/13 11:37:39;;;;;;;9.75;6.45;;;15.20;40.70;;;;;;5025512;27;114562;-86
2023/04/13 11:40:13;;;;;;;12.93;6.35;;;15.10;41.00;;;;;;5043893;27;114467;-87
2023/04/13 11:42:41;;;;;;;;;;;14.80;41.10;;;;;;5028023;27;118403;-85
2023/04/13 11:45:10;;;;;;;9.43;6.45;;;14.60;41.20;;;;;;5024381;27;116222;-86
2023/04/13 11:47:37;;;;;;;8.35;5.90;;;14.40;41.70;;;;;;5045114;27;114441;-85
2023/04/13 11:50:06;;;;;;;10.50;5.95;;;14.40;42.20;;;;;;5018722;27;114684;-86
2023/04/13 11:52:33;;;;;;;12.02;6.43;;;14.30;42.10;;;;;;5018005;27;118423;-85
2023/04/13 11:55:03;;;;;;;10.70;6.07;;;14.20;42.30;;;;;;5009197;27;115267;-85
2023/04/13 11:57:49;;;;;;;10.85;6.55;;;14.10;42.70;;;;;;5028324;27;114731;-86
2023/04/13 12:00:18;;;;;;;9.77;5.78;;;14.00;42.90;;;;;;5010035;27;116703;-86
2023/04/13 12:02:57;;;;;;;9.65;5.85;;;13.80;43.10;;;;;;5019458;27;116201;-86
2023/04/13 12:05:30;;;;;;;10.13;6.38;;;13.80;42.80;;;;;;5019835;27;118098;-85
2023/04/13 12:08:01;;;;;;;9.80;6.13;;;13.70;43.00;;;;;;5005413;27;114631;-86
2023/04/13 12:10:33;;;;;;;11.10;6.32;;;13.60;43.60;;;;;;5019683;27;114429;-85
2023/04/13 12:13:08;;;;;;;9.80;6.70;;;13.50;43.90;;;;;;5004674;27;118043;-86
2023/04/13 12:15:55;;;;;;;9.95;6.22;;;13.40;44.20;;;;;;5022276;27;117969;-84
2023/04/13 12:18:50;;;;;;;11.38;7.80;;;13.30;44.40;;;;;;4999366;27;114370;-86
2023/04/13 12:21:22;;;;;;;9.77;6.13;;;13.30;44.70;;;;;;5037299;27;114583;-85
2023/04/13 12:23:56;;;;;;;10.13;6.28;;;13.20;44.80;;;;;;5023511;27;118063;-85
2023/04/13 12:26:50;;;;;;;10.20;6.33;;;13.20;44.90;;;;;;5020550;27;114561;-85
2023/04/13 12:29:21;;;;;;;11.57;6.70;;;13.20;44.70;;;;;;5018433;27;114473;-86
2023/04/13 12:31:48;;;;;;;9.25;6.47;;;13.00;45.40;;;;;;5019806;27;114280;-86
2023/04/13 12:34:15;;;;;;;10.73;6.30;;;13.00;45.30;;;;;;5021188;27;117815;-87
2023/04/13 12:36:42;;;;;;;12.77;6.45;;;13.00;45.50;;;;;;5021599;27;118127;-86
2023/04/13 12:39:10;;;;;;;10.82;7.28;;;12.90;45.70;;;;;;5014253;27;114399;-86
2023/04/13 12:41:37;;;;;;;9.10;6.72;;;12.90;46.00;;;;;;5017616;27;114419;-86
2023/04/13 12:44:04;;;;;;;9.50;5.75;;;12.90;46.00;;;;;;5047438;27;115026;-85
2023/04/13 12:46:32;;;;;;;9.35;6.32;;;12.90;46.20;;;;;;5011849;27;115041;-88
2023/04/13 12:48:59;;;;;;;8.32;6.45;;;12.80;46.50;;;;;;5031638;27;114627;-86
2023/04/13 12:51:27;;;;;;;10.50;7.25;;;12.80;46.90;;;;;;5008248;27;114406;-86
2023/04/13 12:53:55;;;;;;;10.57;7.57;;;12.80;47.20;;;;;;5038578;27;116705;-85
2023/04/13 12:56:23;;;;;;;9.82;6.85;;;12.70;47.60;;;;;;5031888;27;114816;-84
2023/04/13 12:58:52;;;;;;;11.20;7.32;;;12.70;47.70;;;;;;5014862;27;114370;-85